Time;durP1;ratioP1;P1;durP2;ratioP2;P2;SDS_P1;SDS_P2;PMS_P1;PMS_P2;Temp;Humidity;BMP_temperature;BMP_pressure;BME280_temperature;BME280_humidity;BME280_pressure;Samples;Min_cycle;Max_cycle;Signal;HPM_P1;HPM_P2
2022/04/06 00:01:27;;;;;;;7.53;1.42;;;;;;;9.17;65.49;98766.84;4968292;28;20135;-47
2022/04/06 00:03:54;;;;;;;3.45;0.95;;;;;;;9.18;65.67;98760.78;4981438;28;20086;-46
2022/04/06 00:06:21;;;;;;;4.18;1.25;;;;;;;9.17;66.43;98753.94;4969951;28;20047;-48
2022/04/06 00:09:08;;;;;;;3.70;1.00;;;;;;;9.20;66.55;98763.34;4967281;28;20055;-51
2022/04/06 00:11:34;;;;;;;3.67;1.00;;;;;;;9.24;66.03;98770.16;4964097;28;20063;-47
2022/04/06 00:14:01;;;;;;;4.93;1.30;;;;;;;9.24;66.53;98765.88;4971215;28;20065;-46
2022/04/06 00:16:28;;;;;;;4.13;1.13;;;;;;;9.24;66.96;98762.41;4969806;28;20058;-47
2022/04/06 00:18:56;;;;;;;4.60;1.05;;;;;;;9.24;67.11;98755.53;4966952;28;20051;-42
2022/04/06 00:21:26;;;;;;;6.45;1.15;;;;;;;9.26;66.54;98751.16;4953452;28;20057;-48
2022/04/06 00:23:56;;;;;;;4.78;1.17;;;;;;;9.24;66.46;98745.19;4969696;28;20561;-49
2022/04/06 00:26:25;;;;;;;8.35;1.38;;;;;;;9.26;66.41;98745.16;4972293;28;20382;-45
2022/04/06 00:29:10;;;;;;;5.65;1.08;;;;;;;9.24;66.67;98734.88;4951322;28;20522;-50
2022/04/06 00:31:55;;;;;;;6.03;1.60;;;;;;;9.25;66.60;98731.38;4971757;28;20077;-48
2022/04/06 00:35:28;;;;;;;5.25;1.20;;;;;;;9.24;67.59;98723.66;4978809;28;20062;-46
2022/04/06 00:37:11;;;;;;;5.10;1.40;;;;;;;9.24;66.88;98713.34;4956694;28;20137;-45
2022/04/06 00:39:39;;;;;;;6.53;1.55;;;;;;;9.23;66.70;98702.13;4968174;28;20517;-44
2022/04/06 00:42:06;;;;;;;8.13;1.70;;;;;;;9.23;67.13;98699.56;4975928;28;20067;-49
2022/04/06 00:44:34;;;;;;;5.13;1.52;;;;;;;9.25;66.97;98695.22;4969959;28;20497;-45
2022/04/06 00:47:03;;;;;;;4.93;1.58;;;;;;;9.25;67.37;98709.84;4972035;28;20054;-51
2022/04/06 00:49:31;;;;;;;8.73;1.45;;;;;;;9.24;67.57;98693.53;4972388;28;20059;-44
2022/04/06 00:52:01;;;;;;;5.22;1.73;;;;;;;9.23;67.45;98701.31;4969572;28;20135;-47
2022/04/06 00:54:29;;;;;;;7.85;1.30;;;;;;;9.24;67.66;98692.66;4969500;28;20068;-48
2022/04/06 00:56:56;;;;;;;3.38;1.23;;;;;;;9.24;67.98;98688.34;4970680;28;20078;-44
2022/04/06 00:59:42;;;;;;;7.00;1.60;;;;;;;9.26;67.79;98681.41;4972941;28;20454;-44
2022/04/06 01:02:11;;;;;;;5.82;1.38;;;;;;;9.28;68.26;98657.31;4972047;28;20062;-49
2022/04/06 01:04:38;;;;;;;6.00;1.20;;;;;;;9.29;68.40;98671.91;4972389;28;20097;-45
2022/04/06 01:07:05;;;;;;;7.28;1.55;;;;;;;9.29;68.70;98659.00;4968287;28;20517;-47
2022/04/06 01:09:31;;;;;;;11.95;1.67;;;;;;;9.28;68.15;98657.31;4963315;28;20449;-45
2022/04/06 01:11:59;;;;;;;4.43;0.90;;;;;;;9.26;68.29;98639.25;4966724;28;20466;-46
2022/04/06 01:14:26;;;;;;;7.63;1.25;;;;;;;9.25;68.63;98648.72;4970466;28;20055;-48
2022/04/06 01:17:04;;;;;;;11.70;1.63;;;;;;;9.24;68.60;98657.34;4973393;28;20097;-47
2022/04/06 01:24:48;;;;;;;7.20;2.22;;;;;;;9.25;69.03;98646.13;5035868;27;20406;-49
2022/04/06 01:27:15;;;;;;;7.40;2.38;;;;;;;9.28;68.65;98641.78;5025730;28;20080;-46
2022/04/06 01:29:41;;;;;;;4.63;2.58;;;;;;;9.31;67.97;98636.53;5028193;28;20049;-47
2022/04/06 01:32:20;;;;;;;6.75;2.67;;;;;;;9.29;68.46;98639.16;5024979;28;20046;-53
2022/04/06 01:34:48;;;;;;;7.18;2.55;;;;;;;9.33;68.50;98630.50;5024658;28;20053;-49
2022/04/06 01:37:16;;;;;;;7.68;3.35;;;;;;;9.33;68.53;98619.28;5022648;28;20053;-48
2022/04/06 01:39:45;;;;;;;7.20;2.63;;;;;;;9.36;68.51;98624.41;5048157;28;20559;-46
2022/04/06 01:42:15;;;;;;;8.13;2.42;;;;;;;9.37;67.89;98620.94;5008915;28;20046;-46
2022/04/06 01:44:44;;;;;;;3.65;2.42;;;;;;;9.35;68.12;98597.69;5006758;28;20054;-53
2022/04/06 01:47:12;;;;;;;5.60;2.92;;;;;;;9.36;68.56;98606.31;5009394;28;20547;-47
2022/04/06 01:52:25;;;;;;;8.20;2.28;;;;;;;9.38;68.60;98591.63;5001709;28;20046;-47
2022/04/06 01:54:56;;;;;;;7.15;2.33;;;;;;;9.37;68.20;98595.94;5001889;28;20089;-48
2022/04/06 01:57:23;;;;;;;5.93;2.50;;;;;;;9.37;68.49;98589.91;5007755;28;20057;-49
2022/04/06 01:59:50;;;;;;;4.45;3.08;;;;;;;9.40;68.22;98579.53;4998196;28;20125;-45
2022/04/06 02:02:19;;;;;;;4.75;2.25;;;;;;;9.40;68.43;98579.53;5012141;28;20767;-44
2022/04/06 02:04:46;;;;;;;9.80;2.75;;;;;;;9.42;68.25;98576.91;5016558;28;20050;-44
2022/04/06 02:07:14;;;;;;;7.68;3.10;;;;;;;9.43;67.89;98581.19;5007600;28;20096;-44
2022/04/06 02:09:41;;;;;;;7.78;2.25;;;;;;;9.38;68.92;98576.97;5008222;28;20049;-46
2022/04/06 02:12:09;;;;;;;4.03;2.30;;;;;;;9.39;68.94;98573.50;5007334;28;20077;-49
2022/04/06 02:14:38;;;;;;;4.25;2.35;;;;;;;9.43;68.57;98563.09;5002227;28;20078;-46
2022/04/06 02:17:06;;;;;;;8.30;2.75;;;;;;;9.45;68.35;98556.16;5034585;28;20049;-47
2022/04/06 02:19:35;;;;;;;10.63;2.35;;;;;;;9.44;68.42;98547.56;5001819;28;20470;-47
2022/04/06 02:22:04;;;;;;;4.50;2.35;;;;;;;9.45;68.82;98544.09;4995573;28;20051;-45
2022/04/06 02:24:31;;;;;;;5.43;2.60;;;;;;;9.45;68.42;98548.38;4992626;28;20197;-47
2022/04/06 02:26:58;;;;;;;5.60;2.70;;;;;;;9.45;68.71;98531.16;5000250;28;20062;-50
2022/04/06 02:29:25;;;;;;;5.53;1.75;;;;;;;9.47;69.10;98533.72;5010777;28;20054;-47
2022/04/06 02:31:52;;;;;;;3.78;3.05;;;;;;;9.46;69.03;98538.03;5005262;28;20042;-49
2022/04/06 02:34:19;;;;;;;3.63;1.77;;;;;;;9.44;69.64;98526.88;4995780;28;20526;-45
2022/04/06 02:36:46;;;;;;;3.15;1.70;;;;;;;9.45;69.62;98526.00;4977669;28;20789;-46
2022/04/06 02:39:12;;;;;;;6.95;1.55;;;;;;;9.48;69.69;98523.34;4989864;28;20058;-47
2022/04/06 02:41:39;;;;;;;5.30;1.50;;;;;;;9.48;69.26;98525.94;4989474;28;20290;-49
2022/04/06 02:44:06;;;;;;;6.85;1.42;;;;;;;9.48;69.64;98510.41;4992139;28;20054;-46
2022/04/06 02:46:33;;;;;;;4.43;2.63;;;;;;;9.43;70.67;98507.09;4988265;28;20041;-49
2022/04/06 02:49:00;;;;;;;3.00;1.63;;;;;;;9.42;70.02;98505.38;4990759;28;20050;-45
2022/04/06 02:51:27;;;;;;;4.70;2.47;;;;;;;9.42;70.33;98505.38;4984452;28;20049;-44
2022/04/06 02:53:53;;;;;;;5.07;1.15;;;;;;;9.39;71.16;98501.13;4987131;28;20647;-47
2022/04/06 02:56:20;;;;;;;3.45;2.85;;;;;;;9.43;70.19;98499.34;4993686;28;20046;-49
2022/04/06 02:58:47;;;;;;;5.35;1.80;;;;;;;9.45;70.40;98500.16;4992138;28;20050;-52
2022/04/06 03:01:14;;;;;;;2.13;1.67;;;;;;;9.46;70.41;98496.66;4989597;28;20050;-45
2022/04/06 03:03:41;;;;;;;2.42;1.50;;;;;;;9.46;69.98;98494.09;4996267;28;20043;-45
2022/04/06 03:06:09;;;;;;;3.92;1.50;;;;;;;9.48;70.21;98479.41;4988153;28;20666;-48
2022/04/06 03:08:35;;;;;;;2.70;1.65;;;;;;;9.47;70.50;98480.31;4998328;28;20078;-51
2022/04/06 03:11:02;;;;;;;2.38;1.55;;;;;;;9.47;70.64;98467.38;4999944;28;20109;-49
2022/04/06 03:13:29;;;;;;;4.22;1.70;;;;;;;9.51;70.85;98469.00;4980618;28;20057;-46
2022/04/06 03:15:56;;;;;;;2.25;2.03;;;;;;;9.50;70.57;98450.94;5005769;28;20058;-45
2022/04/06 03:18:23;;;;;;;4.03;1.85;;;;;;;9.51;70.54;98458.66;4990068;28;20667;-49
2022/04/06 03:20:50;;;;;;;2.03;0.35;;;;;;;9.51;70.77;98448.31;4990350;28;20584;-47
2022/04/06 03:23:16;;;;;;;1.92;1.48;;;;;;;9.55;71.36;98450.84;4995681;28;20116;-49
2022/04/06 03:25:43;;;;;;;3.13;1.75;;;;;;;9.56;71.11;98460.28;4994917;28;20100;-51
2022/04/06 03:28:11;;;;;;;1.45;1.30;;;;;;;9.52;70.93;98452.59;5018695;28;20054;-48
2022/04/06 03:30:37;;;;;;;4.43;1.50;;;;;;;9.56;70.45;98449.94;4990341;28;20069;-49
2022/04/06 03:33:06;;;;;;;1.92;1.52;;;;;;;9.56;70.69;98450.78;4989091;28;20049;-44
2022/04/06 03:35:33;;;;;;;2.65;1.67;;;;;;;9.57;71.44;98438.72;5002817;28;20116;-44
2022/04/06 03:37:59;;;;;;;2.50;1.70;;;;;;;9.59;70.98;98439.53;5000756;28;20058;-47
2022/04/06 03:40:26;;;;;;;3.58;2.20;;;;;;;9.58;70.85;98428.34;4989682;28;20101;-46
2022/04/06 03:42:53;;;;;;;2.45;2.15;;;;;;;9.59;71.32;98424.03;4984196;28;20042;-53
2022/04/06 03:45:19;;;;;;;3.83;1.70;;;;;;;9.57;71.49;98420.63;4989237;28;20058;-45
2022/04/06 03:47:46;;;;;;;3.40;1.52;;;;;;;9.54;71.63;98425.88;4987898;28;20111;-47
2022/04/06 03:50:13;;;;;;;3.58;2.65;;;;;;;9.55;71.36;98423.25;4991005;28;20042;-49
2022/04/06 03:52:40;;;;;;;1.67;1.58;;;;;;;9.49;71.96;98408.72;4992563;28;20065;-50
2022/04/06 03:55:09;;;;;;;4.05;1.60;;;;;;;9.46;72.29;98398.47;4994405;28;20045;-46
2022/04/06 03:57:36;;;;;;;5.07;1.00;;;;;;;9.45;71.74;98395.91;4984117;28;20449;-44
2022/04/06 04:00:05;;;;;;;2.53;1.67;;;;;;;9.37;72.28;98385.78;4992643;28;20097;-48
2022/04/06 04:02:32;;;;;;;2.17;1.88;;;;;;;9.32;72.93;98372.97;5016372;28;20054;-44
2022/04/06 04:05:00;;;;;;;4.80;2.30;;;;;;;9.30;72.21;98374.75;4992947;28;20062;-47
2022/04/06 04:07:27;;;;;;;3.30;1.77;;;;;;;9.23;73.51;98355.94;4987111;28;20101;-49
2022/04/06 04:09:54;;;;;;;3.28;2.13;;;;;;;9.21;73.00;98352.56;4989083;28;20050;-45
2022/04/06 04:12:20;;;;;;;3.60;2.03;;;;;;;9.15;73.14;98347.53;4987730;28;20054;-45
2022/04/06 04:14:47;;;;;;;1.70;1.17;;;;;;;9.12;73.64;98347.66;4991211;28;20058;-46
2022/04/06 04:17:14;;;;;;;5.75;2.08;;;;;;;9.12;73.65;98363.16;4993006;28;20046;-49
2022/04/06 04:19:40;;;;;;;2.83;1.88;;;;;;;9.11;73.43;98340.75;4990037;28;20053;-49
2022/04/06 04:22:07;;;;;;;2.92;1.95;;;;;;;9.11;73.65;98340.75;4991366;28;20042;-47
2022/04/06 04:24:34;;;;;;;3.05;0.77;;;;;;;9.06;73.65;98345.19;4992876;28;20391;-50
2022/04/06 04:27:00;;;;;;;4.00;1.88;;;;;;;9.03;74.17;98332.34;4997909;28;20116;-46
2022/04/06 04:29:27;;;;;;;1.75;1.33;;;;;;;9.04;73.60;98328.88;4996601;28;20046;-48
2022/04/06 04:31:54;;;;;;;1.92;1.58;;;;;;;8.98;74.41;98325.56;4994637;28;20054;-48
2022/04/06 04:34:21;;;;;;;1.42;1.20;;;;;;;8.99;74.16;98336.75;4978679;28;20042;-45
2022/04/06 04:36:47;;;;;;;1.60;1.35;;;;;;;8.97;74.29;98329.03;4982729;28;20101;-46
2022/04/06 04:39:14;;;;;;;3.03;1.30;;;;;;;8.90;74.90;98327.50;4986561;28;20050;-44
2022/04/06 04:41:41;;;;;;;1.55;1.45;;;;;;;8.91;73.91;98318.84;4996221;28;20104;-48
2022/04/06 04:44:07;;;;;;;1.90;1.02;;;;;;;8.86;74.29;98302.63;4985594;28;20477;-50
2022/04/06 04:46:34;;;;;;;2.35;1.35;;;;;;;8.83;74.13;98315.59;4987417;28;20050;-46
2022/04/06 04:49:01;;;;;;;3.13;1.42;;;;;;;8.82;73.86;98319.91;4984156;28;20134;-45
2022/04/06 04:51:28;;;;;;;3.22;1.30;;;;;;;8.80;73.81;98315.66;4989959;28;20046;-45
2022/04/06 04:53:57;;;;;;;1.77;1.02;;;;;;;8.78;74.30;98333.78;4986094;28;20593;-43
2022/04/06 04:56:25;;;;;;;2.28;1.70;;;;;;;8.73;74.26;98330.47;4987722;28;20046;-43
2022/04/06 04:58:51;;;;;;;3.45;1.63;;;;;;;8.72;73.36;98319.28;4988278;28;20058;-48
2022/04/06 05:01:18;;;;;;;1.73;1.63;;;;;;;8.66;73.46;98319.44;4989654;28;20115;-45
2022/04/06 05:03:45;;;;;;;2.10;1.38;;;;;;;8.66;74.04;98309.09;4989706;28;20073;-45
2022/04/06 05:06:12;;;;;;;2.33;1.58;;;;;;;8.63;73.45;98303.16;4989674;28;20057;-47
2022/04/06 05:08:38;;;;;;;1.52;1.42;;;;;;;8.65;73.83;98304.81;4983535;28;20050;-45
2022/04/06 05:11:05;;;;;;;1.35;1.25;;;;;;;8.61;73.99;98295.44;4992474;28;20664;-42
2022/04/06 05:13:32;;;;;;;1.50;1.27;;;;;;;8.63;73.98;98296.28;4982156;28;20054;-49
2022/04/06 05:15:59;;;;;;;0.98;0.30;;;;;;;8.61;73.46;98295.44;4987006;28;20745;-52
2022/04/06 05:18:26;;;;;;;2.83;1.25;;;;;;;8.58;73.26;98301.53;4985875;28;20053;-52
2022/04/06 05:20:53;;;;;;;3.35;2.60;;;;;;;8.59;73.11;98294.66;4990733;28;20076;-46
2022/04/06 05:23:20;;;;;;;3.67;1.85;;;;;;;8.58;73.15;98296.38;4998631;28;20120;-49
2022/04/06 05:25:47;;;;;;;4.10;2.45;;;;;;;8.57;73.48;98298.97;4992542;28;20039;-45
2022/04/06 05:28:15;;;;;;;4.85;2.92;;;;;;;8.58;73.91;98290.38;4989291;28;20429;-47
2022/04/06 05:30:42;;;;;;;2.75;2.22;;;;;;;8.58;72.78;98293.78;4995748;28;20072;-46
2022/04/06 05:33:09;;;;;;;3.80;3.50;;;;;;;8.57;73.73;98298.97;4985747;28;20055;-44
2022/04/06 05:35:35;;;;;;;3.03;2.15;;;;;;;8.58;73.38;98300.69;4977905;28;21639;-54
2022/04/06 05:38:02;;;;;;;4.57;2.78;;;;;;;8.58;73.29;98305.84;4974929;28;20596;-52
2022/04/06 05:40:29;;;;;;;1.83;1.67;;;;;;;8.54;74.98;98299.06;4977461;28;20059;-44
2022/04/06 05:42:56;;;;;;;2.60;1.38;;;;;;;8.57;74.39;98304.13;4968374;28;20051;-47
2022/04/06 05:45:23;;;;;;;3.22;1.67;;;;;;;8.56;74.24;98303.31;4987257;28;20049;-47
2022/04/06 05:47:50;;;;;;;1.55;1.45;;;;;;;8.57;73.87;98309.31;4974967;28;20092;-48
2022/04/06 05:50:17;;;;;;;2.17;1.52;;;;;;;8.58;73.79;98295.53;4970119;28;20105;-48
2022/04/06 05:52:43;;;;;;;2.08;1.33;;;;;;;8.58;73.72;98300.69;4982975;28;20050;-44
2022/04/06 05:55:11;;;;;;;2.58;1.08;;;;;;;8.58;74.53;98305.84;4983070;28;20085;-45
2022/04/06 05:57:38;;;;;;;2.17;1.40;;;;;;;8.59;73.93;98307.56;4989061;28;20055;-48
2022/04/06 06:00:07;;;;;;;2.72;1.50;;;;;;;8.62;73.98;98312.66;4992659;28;20045;-45
2022/04/06 06:02:35;;;;;;;2.28;1.55;;;;;;;8.63;74.41;98309.19;4999041;28;20112;-47
2022/04/06 06:05:02;;;;;;;2.85;1.95;;;;;;;8.66;74.18;98314.28;4988476;28;20487;-50
2022/04/06 06:07:29;;;;;;;1.75;1.58;;;;;;;8.68;73.71;98302.16;5005912;28;20057;-44
2022/04/06 06:09:56;;;;;;;3.85;1.33;;;;;;;8.76;74.36;98301.13;4990535;28;20074;-49
2022/04/06 06:12:23;;;;;;;2.03;1.13;;;;;;;8.76;74.72;98303.72;4991777;28;20047;-44
2022/04/06 06:15:07;;;;;;;1.70;1.60;;;;;;;8.76;74.70;98293.41;4992467;28;20734;-49
2022/04/06 06:17:38;;;;;;;3.05;1.92;;;;;;;8.81;74.35;98286.41;4992132;28;20079;-44
2022/04/06 06:20:06;;;;;;;2.15;1.95;;;;;;;8.83;73.87;98289.78;4992762;28;20054;-45
2022/04/06 06:22:33;;;;;;;2.90;1.35;;;;;;;8.87;73.00;98288.81;4991284;28;20483;-47
2022/04/06 06:25:01;;;;;;;2.45;1.50;;;;;;;8.89;73.37;98289.66;4990289;28;20046;-44
2022/04/06 06:27:28;;;;;;;3.80;2.13;;;;;;;8.89;73.60;98283.63;4993802;28;20069;-44
2022/04/06 06:29:54;;;;;;;2.00;1.48;;;;;;;8.91;73.48;98277.53;4994573;28;20562;-46
2022/04/06 06:32:21;;;;;;;3.22;1.35;;;;;;;8.94;72.77;98268.88;5011214;28;20102;-50
2022/04/06 06:34:48;;;;;;;1.45;1.23;;;;;;;8.95;72.96;98279.16;4986043;28;20101;-46
2022/04/06 06:37:14;;;;;;;2.90;2.22;;;;;;;8.96;72.70;98264.53;4981656;28;20465;-45
2022/04/06 06:39:41;;;;;;;1.95;1.30;;;;;;;8.99;72.58;98265.28;4982587;28;20104;-52
2022/04/06 06:42:08;;;;;;;2.97;1.73;;;;;;;9.05;73.28;98278.94;4978666;28;20058;-50
2022/04/06 06:44:34;;;;;;;2.00;1.10;;;;;;;9.06;73.14;98270.31;4987621;28;20059;-46
2022/04/06 06:47:01;;;;;;;1.92;1.58;;;;;;;9.05;73.21;98268.63;4981339;28;20101;-44
2022/04/06 06:49:28;;;;;;;2.17;0.95;;;;;;;9.08;72.39;98273.69;4976852;28;20076;-48
2022/04/06 06:51:54;;;;;;;1.85;1.20;;;;;;;9.11;72.17;98271.03;4976436;28;20062;-45
2022/04/06 06:54:21;;;;;;;3.83;1.75;;;;;;;9.13;72.48;98270.09;4983141;28;20101;-49
2022/04/06 06:56:47;;;;;;;3.45;1.38;;;;;;;9.19;72.71;98268.25;4976132;28;20113;-44
2022/04/06 06:59:14;;;;;;;1.75;1.42;;;;;;;9.22;72.08;98271.59;4982535;28;20101;-46
2022/04/06 07:01:41;;;;;;;2.67;1.58;;;;;;;9.22;72.19;98269.00;4985364;28;20054;-48
2022/04/06 07:04:12;;;;;;;3.30;1.52;;;;;;;9.25;71.92;98266.34;4982955;28;20042;-49
2022/04/06 07:06:39;;;;;;;4.45;2.72;;;;;;;9.28;72.32;98270.59;4976195;28;20105;-44
2022/04/06 07:09:06;;;;;;;7.03;1.90;;;;;;;9.31;71.72;98270.53;4978933;28;20043;-50
2022/04/06 07:11:32;;;;;;;3.83;1.55;;;;;;;9.35;72.23;98266.97;4983101;28;20050;-44
2022/04/06 07:13:59;;;;;;;4.70;1.33;;;;;;;9.40;71.76;98259.09;4980444;28;20054;-50
2022/04/06 07:16:26;;;;;;;1.95;1.77;;;;;;;9.39;72.06;98258.25;4979763;28;20054;-46
2022/04/06 07:18:52;;;;;;;3.90;1.48;;;;;;;9.44;71.85;98255.53;4983590;28;20053;-45
2022/04/06 07:21:19;;;;;;;5.57;1.88;;;;;;;9.44;72.07;98244.34;4978376;28;20070;-45
2022/04/06 07:23:46;;;;;;;2.97;1.73;;;;;;;9.44;71.89;98252.97;4974844;28;20047;-49
2022/04/06 07:26:16;;;;;;;4.25;2.38;;;;;;;9.43;71.52;98259.03;4984510;28;20486;-47
2022/04/06 07:28:45;;;;;;;4.70;3.05;;;;;;;9.46;72.00;98250.34;4988529;28;20532;-51
2022/04/06 07:31:12;;;;;;;5.03;2.05;;;;;;;9.46;71.79;98258.09;4988956;28;20445;-46
2022/04/06 07:33:40;;;;;;;3.13;1.50;;;;;;;9.45;72.01;98252.06;4989178;28;20046;-46
2022/04/06 07:36:07;;;;;;;5.85;2.72;;;;;;;9.49;72.01;98258.84;4991443;28;20042;-47
2022/04/06 07:38:34;;;;;;;4.63;2.13;;;;;;;9.52;72.38;98245.84;4990701;28;20104;-47
2022/04/06 07:41:01;;;;;;;4.32;2.38;;;;;;;9.57;71.85;98244.88;4991024;28;20054;-52
2022/04/06 07:43:27;;;;;;;6.47;2.40;;;;;;;9.60;71.88;98237.03;5000414;28;20056;-43
2022/04/06 07:45:54;;;;;;;6.53;2.30;;;;;;;9.61;71.64;98231.81;4997960;28;20136;-49
2022/04/06 07:48:22;;;;;;;5.93;2.90;;;;;;;9.67;72.09;98232.53;5001547;28;20133;-49
2022/04/06 07:50:55;;;;;;;5.93;2.67;;;;;;;9.64;71.48;98238.63;4996088;28;20125;-47
2022/04/06 07:53:21;;;;;;;4.00;1.80;;;;;;;9.65;72.03;98237.75;5003382;28;20617;-50
2022/04/06 07:55:49;;;;;;;5.75;2.08;;;;;;;9.65;72.37;98227.41;4999774;28;20058;-45
2022/04/06 07:58:18;;;;;;;6.38;2.40;;;;;;;9.71;71.26;98237.56;4990710;28;20703;-44
2022/04/06 08:00:45;;;;;;;4.32;2.63;;;;;;;9.74;71.81;98227.16;5019403;28;20054;-47
2022/04/06 08:03:12;;;;;;;2.47;1.73;;;;;;;9.80;71.64;98240.78;4989238;28;20085;-46
2022/04/06 08:05:39;;;;;;;5.47;2.53;;;;;;;9.85;71.34;98233.72;4997408;28;20926;-46
2022/04/06 08:08:06;;;;;;;3.67;1.70;;;;;;;9.88;71.50;98223.31;4990398;28;20125;-45
2022/04/06 08:10:33;;;;;;;3.90;1.75;;;;;;;9.89;71.27;98209.47;4985858;28;20367;-52
2022/04/06 08:13:05;;;;;;;7.28;1.98;;;;;;;9.93;70.71;98198.16;4986176;28;20066;-46
2022/04/06 08:15:32;;;;;;;6.28;1.92;;;;;;;9.97;71.21;98207.50;4993351;28;20050;-49
2022/04/06 08:17:58;;;;;;;3.65;2.30;;;;;;;10.10;71.18;98209.75;4991921;28;20054;-48
2022/04/06 08:20:26;;;;;;;8.13;4.15;;;;;;;10.18;70.51;98196.56;4990390;28;20046;-47
2022/04/06 08:22:53;;;;;;;8.75;3.58;;;;;;;10.24;70.46;98191.22;4984931;28;20093;-44
2022/04/06 08:25:19;;;;;;;4.13;2.13;;;;;;;10.35;70.03;98180.50;4984667;28;20046;-43
2022/04/06 08:28:02;;;;;;;5.30;2.15;;;;;;;10.49;69.84;98191.31;4999789;28;20485;-46
2022/04/06 08:30:28;;;;;;;3.65;2.35;;;;;;;10.62;69.59;98198.66;5004315;28;20501;-47
2022/04/06 08:32:58;;;;;;;3.72;1.40;;;;;;;10.68;69.24;98188.13;5001542;28;20382;-48
2022/04/06 08:35:26;;;;;;;5.82;1.63;;;;;;;10.77;69.58;98187.81;4989866;28;20039;-48
2022/04/06 08:37:53;;;;;;;4.30;2.00;;;;;;;10.91;69.58;98183.91;4991587;28;20064;-44
2022/04/06 08:40:20;;;;;;;5.07;2.25;;;;;;;11.01;69.13;98177.50;4986887;28;20050;-45
2022/04/06 08:42:47;;;;;;;4.72;2.15;;;;;;;11.00;68.04;98180.13;4989468;28;20062;-54
2022/04/06 08:45:16;;;;;;;4.82;2.30;;;;;;;11.00;67.98;98173.22;4993729;28;20041;-45
2022/04/06 08:47:47;;;;;;;7.72;2.38;;;;;;;11.01;68.46;98174.91;4994828;28;20054;-46
2022/04/06 08:50:17;;;;;;;4.90;2.17;;;;;;;11.06;68.43;98177.34;5004371;28;20078;-50
2022/04/06 08:52:44;;;;;;;6.55;2.88;;;;;;;11.15;68.31;98174.41;4989254;28;20088;-48
2022/04/06 08:55:25;;;;;;;6.25;2.58;;;;;;;11.25;67.89;98174.94;4989142;28;20042;-53
2022/04/06 08:57:52;;;;;;;4.55;2.40;;;;;;;11.37;67.49;98172.81;4988489;28;20101;-50
2022/04/06 09:00:18;;;;;;;6.30;2.60;;;;;;;11.51;67.86;98167.13;4989155;28;20539;-45
2022/04/06 09:02:46;;;;;;;7.28;2.35;;;;;;;11.64;66.38;98158.00;4987094;28;20486;-45
2022/04/06 09:05:13;;;;;;;5.55;2.40;;;;;;;11.86;67.13;98161.50;4997816;28;20050;-48
2022/04/06 09:07:41;;;;;;;7.80;2.55;;;;;;;12.12;65.93;98152.75;4985431;28;20061;-46
2022/04/06 09:10:08;;;;;;;3.50;2.00;;;;;;;12.31;66.25;98159.78;4994381;28;20481;-47
2022/04/06 09:12:35;;;;;;;6.57;2.58;;;;;;;12.42;64.66;98149.81;5000630;28;20062;-49
2022/04/06 09:17:45;;;;;;;16.20;4.25;;;;;;;12.80;63.22;98138.72;5056488;27;20395;-48
2022/04/06 09:20:13;;;;;;;15.73;3.78;;;;;;;12.75;64.27;98145.88;5023934;28;20152;-47
2022/04/06 09:22:46;;;;;;;16.77;3.47;;;;;;;12.68;63.30;98134.06;5009774;28;20064;-46
2022/04/06 09:25:13;;;;;;;6.30;2.00;;;;;;;12.69;62.87;98121.00;5020897;28;20438;-48
2022/04/06 09:27:41;;;;;;;13.27;3.72;;;;;;;12.72;62.97;98114.84;5024745;28;20108;-48
2022/04/06 09:30:09;;;;;;;4.97;1.05;;;;;;;12.77;61.98;98102.50;5021582;28;20513;-48
2022/04/06 09:32:36;;;;;;;6.55;1.60;;;;;;;12.96;63.21;98093.91;5025815;28;20054;-45
2022/04/06 09:35:25;;;;;;;4.50;1.83;;;;;;;13.19;60.87;98071.25;5024069;28;20045;-48
2022/04/06 09:38:13;;;;;;;3.60;1.30;;;;;;;13.44;61.66;98085.72;5019408;28;20129;-55
2022/04/06 09:40:41;;;;;;;7.05;1.73;;;;;;;13.65;59.81;98073.53;5023176;28;20061;-46
2022/04/06 09:43:22;;;;;;;3.63;0.82;;;;;;;13.79;59.59;98075.47;5024528;28;20084;-43
2022/04/06 09:48:53;;;;;;;3.55;1.02;;;;;;;13.76;57.78;98080.81;5022964;28;20057;-47
2022/04/06 09:51:22;;;;;;;3.45;0.88;;;;;;;13.84;58.77;98078.69;5024290;28;20069;-52
2022/04/06 09:53:49;;;;;;;4.53;1.27;;;;;;;13.92;58.58;98085.28;5023422;28;20108;-52
2022/04/06 09:56:17;;;;;;;4.22;0.70;;;;;;;14.11;58.04;98073.06;5015666;28;20603;-47
2022/04/06 09:58:45;;;;;;;3.80;1.15;;;;;;;14.21;57.31;98085.59;5014874;28;20058;-54
2022/04/06 10:01:14;;;;;;;2.30;0.90;;;;;;;14.24;57.40;98067.22;5020937;28;20060;-51
2022/04/06 10:03:52;;;;;;;3.80;1.13;;;;;;;14.27;57.35;98067.09;5004888;28;20049;-48
2022/04/06 10:06:19;;;;;;;2.35;0.63;;;;;;;14.28;57.15;98066.16;5020824;28;20038;-46
2022/04/06 10:08:46;;;;;;;2.25;0.60;;;;;;;14.21;57.17;98065.63;5018070;28;20049;-47
2022/04/06 10:11:15;;;;;;;1.60;0.68;;;;;;;13.83;55.02;98064.00;5019695;28;20057;-50
2022/04/06 10:13:42;;;;;;;2.60;0.80;;;;;;;13.70;56.38;98049.88;5023586;28;20097;-52
2022/04/06 10:16:20;;;;;;;3.03;0.80;;;;;;;13.50;56.85;98049.06;5021266;28;20052;-46
2022/04/06 10:18:48;;;;;;;3.00;1.02;;;;;;;13.31;57.57;98049.88;5024183;28;20045;-49
2022/04/06 10:21:23;;;;;;;1.55;0.98;;;;;;;13.21;58.06;98053.84;5018349;28;20045;-50
2022/04/06 10:24:07;;;;;;;5.00;1.55;;;;;;;13.04;57.76;98039.81;5023797;28;20037;-55
2022/04/06 10:27:13;;;;;;;1.98;0.93;;;;;;;12.90;58.91;98030.06;5003488;28;20639;-51
2022/04/06 10:30:22;;;;;;;2.65;0.88;;;;;;;12.85;58.39;98027.69;5009082;28;20059;-52
2022/04/06 10:32:51;;;;;;;2.90;0.80;;;;;;;12.96;58.16;98028.94;5005481;28;20057;-50
2022/04/06 10:35:21;;;;;;;2.55;0.73;;;;;;;12.98;58.32;98022.75;5006755;28;20050;-50
2022/04/06 10:40:54;;;;;;;1.70;0.60;;;;;;;12.93;56.78;98003.09;5023301;27;20417;-50
2022/04/06 10:43:50;;;;;;;2.08;0.75;;;;;;;12.85;57.38;97996.50;5023465;28;20478;-51
2022/04/06 10:46:30;;;;;;;3.78;0.68;;;;;;;12.87;58.55;98003.38;4994788;28;20050;-45
2022/04/06 10:51:35;;;;;;;3.10;1.63;;;;;;;12.77;57.42;97993.38;5054574;27;20401;-47
2022/04/06 10:57:00;;;;;;;3.97;2.13;;;;;;;12.70;57.76;97989.41;5054094;27;20390;-52
2022/04/06 10:59:28;;;;;;;2.33;2.13;;;;;;;12.72;57.71;97983.22;5023771;28;20042;-44
2022/04/06 11:02:16;;;;;;;2.15;1.95;;;;;;;12.70;57.21;97976.41;5052245;28;20137;-46
2022/04/06 11:04:44;;;;;;;3.28;2.38;;;;;;;12.65;58.89;97973.16;5021631;28;20073;-45
2022/04/06 11:07:11;;;;;;;4.18;2.45;;;;;;;12.63;58.27;97969.81;5023383;28;20053;-47
2022/04/06 11:10:11;;;;;;;2.58;2.33;;;;;;;12.59;58.56;97951.75;5028311;28;20060;-47
2022/04/06 11:12:58;;;;;;;4.03;2.58;;;;;;;12.59;59.01;97953.50;5011814;28;20057;-45
2022/04/06 11:15:33;;;;;;;4.85;1.88;;;;;;;12.65;58.44;97952.38;5021364;28;20050;-47
2022/04/06 11:18:00;;;;;;;5.25;2.42;;;;;;;12.62;57.75;97942.13;5021117;28;20068;-50
2022/04/06 11:20:32;;;;;;;5.05;1.83;;;;;;;12.62;57.57;97931.75;5022430;28;20045;-43
2022/04/06 11:23:00;;;;;;;5.05;2.08;;;;;;;12.67;58.32;97916.81;5022680;28;20053;-45
2022/04/06 11:25:31;;;;;;;2.40;1.35;;;;;;;12.72;57.86;97917.44;5023334;28;20054;-49
2022/04/06 11:28:08;;;;;;;4.05;1.98;;;;;;;12.80;57.55;97920.53;5022782;28;20072;-44
2022/04/06 11:30:36;;;;;;;4.82;3.63;;;;;;;12.82;56.98;97905.72;5005037;28;20065;-47
2022/04/06 11:33:04;;;;;;;4.50;2.13;;;;;;;12.82;57.17;97916.13;5024199;28;20053;-47
2022/04/06 11:35:34;;;;;;;6.22;2.17;;;;;;;12.85;57.05;97902.13;5024010;28;20049;-43
2022/04/06 11:38:04;;;;;;;3.72;2.85;;;;;;;12.82;57.37;97895.31;5023836;28;20133;-45
2022/04/06 11:40:32;;;;;;;4.47;2.38;;;;;;;12.85;57.94;97902.97;5020586;28;20504;-48
2022/04/06 11:43:04;;;;;;;3.47;2.33;;;;;;;12.76;56.79;97902.56;5020863;28;20520;-47
2022/04/06 11:45:33;;;;;;;6.90;3.63;;;;;;;12.83;57.67;97904.78;5017958;28;20148;-47
2022/04/06 11:48:02;;;;;;;6.15;2.63;;;;;;;12.88;57.70;97885.56;5003051;28;20115;-44
2022/04/06 11:50:32;;;;;;;7.15;3.13;;;;;;;13.05;58.18;97888.22;5018432;28;20050;-46
2022/04/06 11:53:03;;;;;;;;;;;;;;;13.20;57.04;97864.97;5017186;28;20053;-48
2022/04/06 11:55:48;;;;;;;10.55;3.08;;;;;;;13.45;57.23;97868.97;5018802;28;20439;-53
2022/04/06 12:01:17;;;;;;;1.13;0.57;;;;;;;13.62;56.33;97856.00;5030207;28;20406;-50
2022/04/06 12:03:46;;;;;;;6.55;2.03;;;;;;;13.51;57.31;97866.09;5035163;28;20485;-47
2022/04/06 12:06:14;;;;;;;4.72;1.08;;;;;;;13.37;58.39;97866.75;5042880;28;20048;-50
2022/04/06 12:08:43;;;;;;;7.20;1.77;;;;;;;13.09;58.27;97874.16;5042576;28;20049;-47
2022/04/06 12:11:10;;;;;;;7.05;1.65;;;;;;;12.95;59.80;97871.38;5042867;28;20178;-46
2022/04/06 12:13:39;;;;;;;4.47;1.20;;;;;;;12.63;60.23;97886.72;5045163;28;20780;-49